Time;durP1;ratioP1;P1;durP2;ratioP2;P2;SDS_P1;SDS_P2;PMS_P1;PMS_P2;Temp;Humidity;BMP_temperature;BMP_pressure;BME280_temperature;BME280_humidity;BME280_pressure;Samples;Min_cycle;Max_cycle;Signal;HPM_P1;HPM_P2
2022/01/15 00:00:37;;;;;;;14.00;8.02;;;6.30;99.90;;;;;;5091529;28;20032;-83
2022/01/15 00:03:11;;;;;;;17.67;8.93;;;6.30;99.90;;;;;;5091069;28;20044;-83
2022/01/15 00:05:37;;;;;;;21.38;13.70;;;6.30;99.90;;;;;;5087762;28;20040;-84
2022/01/15 00:08:04;;;;;;;27.35;13.23;;;6.30;99.90;;;;;;5091880;28;20123;-83
2022/01/15 00:10:30;;;;;;;14.32;8.38;;;6.30;99.90;;;;;;5094883;28;20526;-83
2022/01/15 00:13:01;;;;;;;23.42;10.88;;;6.30;99.90;;;;;;5096126;28;20075;-83
2022/01/15 00:15:34;;;;;;;22.20;10.48;;;6.30;99.90;;;;;;5095498;28;20044;-83
2022/01/15 00:18:05;;;;;;;26.65;13.25;;;6.30;99.90;;;;;;5088184;28;20044;-83
2022/01/15 00:20:31;;;;;;;31.88;14.60;;;6.30;99.90;;;;;;5095218;28;20044;-83
2022/01/15 00:22:58;;;;;;;32.28;14.00;;;6.30;99.90;;;;;;5095872;28;20040;-83
2022/01/15 00:25:27;;;;;;;24.42;11.73;;;6.30;99.90;;;;;;5094553;28;20032;-83
2022/01/15 00:27:54;;;;;;;18.08;9.23;;;6.40;99.90;;;;;;5094959;28;20039;-84
2022/01/15 00:30:20;;;;;;;28.42;12.43;;;6.40;99.90;;;;;;5094726;28;20085;-83
2022/01/15 00:32:46;;;;;;;39.65;16.42;;;6.40;99.90;;;;;;5095607;28;20032;-84
2022/01/15 00:35:13;;;;;;;51.15;21.33;;;6.40;99.90;;;;;;5094504;28;20032;-83
2022/01/15 00:37:42;;;;;;;73.40;25.98;;;6.30;99.90;;;;;;5096041;28;20032;-84
2022/01/15 00:40:11;;;;;;;13.88;8.48;;;6.30;99.90;;;;;;5088043;28;20087;-84
2022/01/15 00:42:38;;;;;;;11.88;6.57;;;6.30;99.90;;;;;;5094958;28;20036;-85
2022/01/15 00:45:08;;;;;;;22.02;11.45;;;6.30;99.90;;;;;;5094911;28;20036;-84
2022/01/15 00:47:34;;;;;;;17.48;8.65;;;6.30;99.90;;;;;;5094663;28;20040;-84
2022/01/15 00:50:02;;;;;;;25.42;12.43;;;6.30;99.90;;;;;;5095026;28;20555;-84
2022/01/15 00:52:28;;;;;;;11.85;7.53;;;6.30;99.90;;;;;;5093635;28;20202;-83
2022/01/15 00:54:54;;;;;;;40.33;18.05;;;6.30;99.90;;;;;;5095098;28;20067;-84
2022/01/15 00:57:20;;;;;;;38.60;15.88;;;6.30;99.90;;;;;;5093581;28;20506;-83
2022/01/15 00:59:46;;;;;;;24.38;11.60;;;6.30;99.90;;;;;;5083163;28;20403;-83
2022/01/15 01:02:11;;;;;;;31.75;14.95;;;6.30;99.90;;;;;;5077057;28;20040;-83
2022/01/15 01:04:37;;;;;;;26.10;13.75;;;6.30;99.90;;;;;;5077831;28;20032;-83
2022/01/15 01:07:03;;;;;;;19.63;10.85;;;6.30;99.90;;;;;;5094257;28;20032;-84
2022/01/15 01:09:44;;;;;;;16.45;8.68;;;6.30;99.90;;;;;;5094390;28;20063;-83
2022/01/15 01:12:25;;;;;;;30.58;14.13;;;6.30;99.90;;;;;;5093668;28;20474;-83
2022/01/15 01:20:29;;;;;;;15.32;7.50;;;6.30;99.90;;;;;;5093000;28;20043;-83
2022/01/15 01:22:57;;;;;;;10.85;6.57;;;6.30;99.90;;;;;;5094231;28;20437;-83
2022/01/15 01:25:31;;;;;;;28.17;13.40;;;6.30;99.90;;;;;;5094270;28;20093;-84
2022/01/15 01:28:07;;;;;;;17.13;8.68;;;6.30;99.90;;;;;;5094406;28;20039;-83
2022/01/15 01:30:41;;;;;;;21.08;10.23;;;6.30;99.90;;;;;;5093289;28;20032;-83
2022/01/15 01:36:01;;;;;;;25.33;11.18;;;6.30;99.90;;;;;;5087809;28;20164;-84
2022/01/15 01:38:32;;;;;;;18.05;8.77;;;6.30;99.90;;;;;;5094096;28;20051;-83
2022/01/15 01:41:00;;;;;;;15.27;7.90;;;6.30;99.90;;;;;;5082755;28;20109;-83
2022/01/15 01:43:44;;;;;;;14.77;9.50;;;6.30;99.90;;;;;;5093237;28;20043;-83
2022/01/15 01:46:21;;;;;;;12.73;6.55;;;6.30;99.90;;;;;;5093251;28;20040;-84
2022/01/15 01:48:47;;;;;;;11.32;5.90;;;6.30;99.90;;;;;;5093214;28;20044;-83
2022/01/15 01:51:23;;;;;;;9.60;5.47;;;6.30;99.90;;;;;;5093554;28;20067;-83
2022/01/15 01:53:49;;;;;;;9.90;5.30;;;6.30;99.90;;;;;;5093046;28;20099;-83
2022/01/15 01:56:15;;;;;;;7.50;4.22;;;6.30;99.90;;;;;;5093268;28;20040;-83
2022/01/15 01:58:41;;;;;;;4.03;1.98;;;6.30;99.90;;;;;;5092820;28;20472;-84
2022/01/15 02:01:06;;;;;;;4.15;1.70;;;6.30;99.90;;;;;;5093883;28;20048;-84
2022/01/15 02:03:32;;;;;;;6.00;2.65;;;6.30;99.90;;;;;;5076107;28;20085;-83
2022/01/15 02:05:58;;;;;;;5.70;2.25;;;6.30;99.90;;;;;;5092618;28;20036;-83
2022/01/15 02:08:23;;;;;;;4.97;0.90;;;6.20;99.90;;;;;;5093017;28;20038;-83
2022/01/15 02:10:49;;;;;;;2.67;1.05;;;6.20;99.90;;;;;;5092696;28;20040;-83
2022/01/15 02:13:15;;;;;;;1.95;0.63;;;6.30;99.90;;;;;;5092680;28;20039;-83
2022/01/15 02:15:41;;;;;;;6.82;3.47;;;6.30;99.90;;;;;;5092508;28;20031;-83
2022/01/15 02:18:06;;;;;;;4.05;2.05;;;6.30;99.90;;;;;;5092815;28;20044;-83
2022/01/15 02:26:04;;;;;;;11.90;3.53;;;6.30;99.90;;;;;;5093409;28;20126;-83
2022/01/15 02:28:32;;;;;;;5.97;3.47;;;6.40;99.90;;;;;;5095831;28;20078;-83
2022/01/15 02:31:10;;;;;;;5.25;2.88;;;6.30;99.90;;;;;;5094066;28;20044;-84
2022/01/15 02:33:37;;;;;;;4.95;1.42;;;6.30;99.90;;;;;;5092353;28;20486;-83
2022/01/15 02:36:05;;;;;;;2.50;1.45;;;6.30;99.90;;;;;;5077793;28;20051;-83
2022/01/15 02:38:31;;;;;;;4.78;2.22;;;6.30;99.90;;;;;;5094851;28;20086;-83
2022/01/15 02:40:57;;;;;;;2.42;1.48;;;6.30;99.90;;;;;;5094600;28;20043;-83
2022/01/15 02:43:29;;;;;;;3.90;1.67;;;6.30;99.90;;;;;;5094288;28;20057;-83
2022/01/15 02:45:57;;;;;;;3.80;1.48;;;6.30;99.90;;;;;;5094954;28;20040;-83
2022/01/15 02:48:27;;;;;;;5.60;1.83;;;6.30;99.90;;;;;;5093795;28;20036;-84
2022/01/15 02:50:54;;;;;;;4.80;1.90;;;6.30;99.90;;;;;;5095564;28;20044;-83
2022/01/15 02:53:20;;;;;;;4.03;2.05;;;6.30;99.90;;;;;;5092967;28;20040;-83
2022/01/15 02:55:49;;;;;;;3.20;1.40;;;6.30;99.90;;;;;;5094479;28;20449;-83
2022/01/15 02:58:16;;;;;;;4.95;2.13;;;6.30;99.90;;;;;;5093831;28;20103;-83
2022/01/15 03:00:42;;;;;;;4.80;2.55;;;6.30;99.90;;;;;;5095087;28;20068;-83
2022/01/15 03:03:07;;;;;;;5.32;2.67;;;6.30;99.90;;;;;;5076278;28;20383;-83
2022/01/15 03:05:33;;;;;;;7.20;2.83;;;6.30;99.90;;;;;;5094843;28;20035;-84
2022/01/15 03:07:59;;;;;;;8.38;3.78;;;6.30;99.90;;;;;;5093346;28;20047;-83
2022/01/15 03:10:25;;;;;;;6.38;4.18;;;6.30;99.90;;;;;;5094370;28;20028;-83
2022/01/15 03:12:53;;;;;;;8.05;4.18;;;6.30;99.90;;;;;;5076495;28;20131;-83
2022/01/15 03:15:19;;;;;;;8.93;4.95;;;6.20;99.90;;;;;;5093899;28;20094;-83
2022/01/15 03:17:49;;;;;;;9.38;3.50;;;6.20;99.90;;;;;;5094223;28;20514;-83
2022/01/15 03:20:17;;;;;;;9.35;4.43;;;6.20;99.90;;;;;;5093005;28;20493;-83
2022/01/15 03:22:43;;;;;;;7.78;3.53;;;6.20;99.90;;;;;;5093928;28;20066;-83
2022/01/15 03:25:11;;;;;;;5.05;3.47;;;6.20;99.90;;;;;;5093466;28;20036;-83
2022/01/15 03:27:37;;;;;;;7.70;3.08;;;6.20;99.90;;;;;;5093616;28;20567;-83
2022/01/15 03:30:07;;;;;;;8.57;3.92;;;6.20;99.90;;;;;;5093487;28;20032;-84
2022/01/15 03:32:34;;;;;;;7.57;4.45;;;6.20;99.90;;;;;;5094428;28;20115;-83
2022/01/15 03:34:59;;;;;;;9.95;4.55;;;6.20;99.90;;;;;;5092226;28;20528;-83
2022/01/15 03:37:25;;;;;;;9.13;4.82;;;6.20;99.90;;;;;;5094179;28;20036;-83
2022/01/15 03:39:51;;;;;;;11.82;5.72;;;6.20;99.90;;;;;;5092996;28;20058;-83
2022/01/15 03:42:17;;;;;;;7.78;3.20;;;6.20;99.90;;;;;;5093729;28;20043;-83
2022/01/15 03:44:48;;;;;;;7.35;4.10;;;6.20;99.90;;;;;;5094862;28;20031;-83
2022/01/15 03:47:14;;;;;;;12.63;5.53;;;6.20;99.90;;;;;;5097862;28;20437;-83
2022/01/15 03:49:41;;;;;;;7.45;4.75;;;6.20;99.90;;;;;;5096856;28;20043;-83
2022/01/15 03:52:08;;;;;;;9.40;5.05;;;6.20;99.90;;;;;;5089483;28;20544;-83
2022/01/15 03:54:34;;;;;;;9.77;4.30;;;6.10;99.90;;;;;;5097076;28;20040;-83
2022/01/15 03:57:00;;;;;;;9.50;5.47;;;6.10;99.90;;;;;;5097130;28;20475;-83
2022/01/15 03:59:27;;;;;;;8.98;4.57;;;6.10;99.90;;;;;;5097605;28;20044;-83
2022/01/15 04:01:53;;;;;;;7.45;4.50;;;6.10;99.90;;;;;;5098253;28;20043;-83
2022/01/15 04:04:19;;;;;;;6.07;3.25;;;6.10;99.90;;;;;;5097965;28;20083;-83
2022/01/15 04:06:44;;;;;;;8.55;4.40;;;6.20;99.90;;;;;;5114515;28;20035;-83
2022/01/15 04:09:11;;;;;;;6.97;3.38;;;6.10;99.90;;;;;;5119329;28;20035;-83
2022/01/15 04:11:37;;;;;;;7.35;3.88;;;6.10;99.90;;;;;;5118547;28;20034;-83
2022/01/15 04:14:07;;;;;;;6.82;3.70;;;6.10;99.90;;;;;;5119280;28;20036;-83
2022/01/15 04:16:33;;;;;;;6.88;3.95;;;6.10;99.90;;;;;;5119389;28;20058;-83
2022/01/15 04:18:59;;;;;;;6.25;3.80;;;6.10;99.90;;;;;;5118060;28;20064;-83
2022/01/15 04:21:26;;;;;;;9.10;4.32;;;6.10;99.90;;;;;;5116319;28;20032;-85
2022/01/15 04:23:52;;;;;;;7.55;3.95;;;6.10;99.90;;;;;;5103881;28;20036;-82
2022/01/15 04:26:23;;;;;;;9.13;3.88;;;6.10;99.90;;;;;;5098981;28;20040;-82
2022/01/15 04:28:48;;;;;;;8.35;3.28;;;6.10;99.90;;;;;;5098287;28;20047;-82
2022/01/15 04:31:16;;;;;;;8.02;3.58;;;6.10;99.90;;;;;;5097734;28;20044;-82
2022/01/15 04:33:41;;;;;;;8.13;3.70;;;6.10;99.90;;;;;;5097079;28;20040;-84
2022/01/15 04:36:08;;;;;;;5.45;3.20;;;6.10;99.90;;;;;;5097308;28;20055;-82
2022/01/15 04:38:38;;;;;;;8.20;4.00;;;6.10;99.90;;;;;;5080073;28;20131;-81
2022/01/15 04:41:06;;;;;;;6.85;3.75;;;6.10;99.90;;;;;;5079582;28;20040;-80
2022/01/15 04:43:32;;;;;;;5.47;3.67;;;6.10;99.90;;;;;;5096306;28;20062;-82
2022/01/15 04:45:57;;;;;;;7.20;3.75;;;6.10;99.90;;;;;;5096434;28;20036;-80
2022/01/15 04:48:23;;;;;;;10.25;3.95;;;6.10;99.90;;;;;;5078956;28;20040;-80
2022/01/15 04:50:48;;;;;;;5.13;2.88;;;6.10;99.90;;;;;;5096068;28;20100;-80
2022/01/15 04:53:14;;;;;;;7.43;3.83;;;6.10;99.90;;;;;;5095397;28;20040;-81
2022/01/15 04:55:40;;;;;;;7.18;2.90;;;6.00;99.90;;;;;;5094439;28;20043;-81
2022/01/15 04:58:06;;;;;;;5.68;2.17;;;6.00;99.90;;;;;;5095936;28;20032;-81
2022/01/15 05:00:33;;;;;;;4.90;1.85;;;6.00;99.90;;;;;;5096014;28;20048;-82
2022/01/15 05:02:59;;;;;;;5.65;2.40;;;6.00;99.90;;;;;;5095737;28;20058;-81
2022/01/15 05:05:25;;;;;;;4.55;1.90;;;6.00;99.90;;;;;;5095962;28;20127;-83
2022/01/15 05:07:52;;;;;;;3.50;1.25;;;5.90;99.90;;;;;;5095264;28;20044;-81
2022/01/15 05:10:21;;;;;;;3.10;1.35;;;6.00;99.90;;;;;;5095587;28;20036;-81
2022/01/15 05:12:48;;;;;;;2.92;1.58;;;6.00;99.90;;;;;;5094634;28;20470;-81
2022/01/15 05:15:16;;;;;;;5.10;1.50;;;6.00;99.90;;;;;;5094606;28;20145;-81
2022/01/15 05:17:42;;;;;;;3.67;1.70;;;6.00;99.90;;;;;;5093855;28;20081;-81
2022/01/15 05:20:09;;;;;;;5.35;1.60;;;5.90;99.90;;;;;;5093249;28;20032;-82
2022/01/15 05:22:35;;;;;;;4.00;1.30;;;6.00;99.90;;;;;;5091645;28;20092;-80
2022/01/15 05:25:03;;;;;;;3.42;1.42;;;5.90;99.90;;;;;;5093460;28;20028;-81
2022/01/15 05:27:29;;;;;;;4.50;1.33;;;5.90;99.90;;;;;;5092898;28;20032;-81
2022/01/15 05:29:54;;;;;;;3.45;1.30;;;5.90;99.90;;;;;;5093207;28;20040;-82
2022/01/15 05:32:23;;;;;;;4.30;1.10;;;6.00;99.90;;;;;;5093667;28;20035;-82
2022/01/15 05:34:49;;;;;;;5.55;1.98;;;5.90;99.90;;;;;;5093119;28;20044;-83
2022/01/15 05:37:15;;;;;;;2.90;1.25;;;5.90;99.90;;;;;;5092765;28;20081;-81
2022/01/15 05:39:40;;;;;;;2.38;1.13;;;5.90;99.90;;;;;;5092754;28;20036;-81
2022/01/15 05:42:06;;;;;;;3.67;1.27;;;5.90;99.90;;;;;;5092255;28;20044;-83
2022/01/15 05:44:32;;;;;;;3.53;1.17;;;5.90;99.90;;;;;;5092851;28;20078;-84
2022/01/15 05:46:58;;;;;;;3.20;1.10;;;5.90;99.90;;;;;;5092541;28;20546;-83
2022/01/15 05:49:23;;;;;;;4.57;1.52;;;5.90;99.90;;;;;;5093155;28;20071;-81
2022/01/15 05:51:49;;;;;;;3.10;0.88;;;5.90;99.90;;;;;;5092622;28;20032;-81
2022/01/15 05:54:15;;;;;;;6.07;2.03;;;5.90;99.90;;;;;;5075854;28;20460;-82
2022/01/15 05:56:40;;;;;;;3.65;1.92;;;5.90;99.90;;;;;;5089146;28;20042;-81
2022/01/15 05:59:07;;;;;;;2.85;1.13;;;5.90;99.90;;;;;;5092410;28;20431;-81
2022/01/15 06:01:33;;;;;;;3.33;0.75;;;5.80;99.90;;;;;;5092911;28;20056;-81
2022/01/15 06:03:59;;;;;;;3.60;1.73;;;5.80;99.90;;;;;;5094935;28;20147;-81
2022/01/15 06:06:24;;;;;;;4.15;1.58;;;5.90;99.90;;;;;;5094431;28;20490;-82
2022/01/15 06:08:50;;;;;;;3.65;1.38;;;5.90;99.90;;;;;;5094924;28;20040;-81
2022/01/15 06:11:17;;;;;;;4.05;1.80;;;5.90;99.90;;;;;;5094207;28;20040;-84
2022/01/15 06:13:47;;;;;;;3.72;1.55;;;5.80;99.90;;;;;;5094624;28;20119;-82
2022/01/15 06:16:13;;;;;;;3.38;1.63;;;5.90;99.90;;;;;;5094492;28;20047;-81
2022/01/15 06:18:39;;;;;;;3.33;1.27;;;5.80;99.90;;;;;;5093961;28;20120;-81
2022/01/15 06:21:05;;;;;;;5.15;1.80;;;5.90;99.90;;;;;;5092830;28;20042;-81
2022/01/15 06:23:31;;;;;;;5.85;2.50;;;5.90;99.90;;;;;;5093192;28;20218;-81
2022/01/15 06:25:56;;;;;;;5.40;2.40;;;5.90;99.90;;;;;;5092827;28;20107;-82
2022/01/15 06:28:22;;;;;;;6.10;2.50;;;5.90;99.90;;;;;;5093122;28;20078;-82
2022/01/15 06:30:48;;;;;;;4.70;2.38;;;5.80;99.90;;;;;;5093186;28;20032;-81
2022/01/15 06:33:14;;;;;;;3.90;1.80;;;5.80;99.90;;;;;;5092467;28;20485;-82
2022/01/15 06:35:40;;;;;;;6.97;1.92;;;5.80;99.90;;;;;;5092783;28;20126;-82
2022/01/15 06:38:05;;;;;;;3.33;1.80;;;5.80;99.90;;;;;;5076209;28;20036;-82
2022/01/15 06:40:31;;;;;;;7.95;3.15;;;5.80;99.90;;;;;;5092375;28;20047;-82
2022/01/15 06:43:00;;;;;;;4.95;2.67;;;5.80;99.90;;;;;;5092755;28;20072;-82
2022/01/15 06:45:26;;;;;;;7.97;2.50;;;5.80;99.90;;;;;;5092611;28;20054;-82
2022/01/15 06:47:51;;;;;;;4.85;2.08;;;5.80;99.90;;;;;;5092444;28;20047;-82
2022/01/15 06:50:17;;;;;;;5.97;2.55;;;5.80;99.90;;;;;;5091762;28;20040;-82
2022/01/15 06:52:43;;;;;;;4.35;1.60;;;5.80;99.90;;;;;;5092351;28;20040;-82
2022/01/15 06:55:09;;;;;;;5.18;2.65;;;5.80;99.90;;;;;;5092516;28;20651;-82
2022/01/15 06:57:35;;;;;;;5.80;2.50;;;5.80;99.90;;;;;;5075431;28;20096;-82
2022/01/15 07:00:02;;;;;;;6.68;2.60;;;5.80;99.90;;;;;;5075747;28;20522;-82
2022/01/15 07:02:28;;;;;;;4.75;2.67;;;5.80;99.90;;;;;;5091840;28;20498;-82
2022/01/15 07:04:54;;;;;;;5.93;2.63;;;5.80;99.90;;;;;;5092457;28;20047;-83
2022/01/15 07:07:19;;;;;;;8.73;3.17;;;5.80;99.90;;;;;;5091995;28;20074;-83
2022/01/15 07:09:45;;;;;;;6.00;2.88;;;5.70;99.90;;;;;;5094400;28;20032;-83
2022/01/15 07:12:10;;;;;;;11.77;4.90;;;5.70;99.90;;;;;;5093388;28;20130;-83
2022/01/15 07:14:36;;;;;;;11.27;4.47;;;5.70;99.90;;;;;;5092804;28;20118;-83
2022/01/15 07:17:02;;;;;;;13.43;5.07;;;5.70;99.90;;;;;;5092512;28;20036;-82
2022/01/15 07:19:28;;;;;;;11.13;4.43;;;5.70;99.90;;;;;;5092251;28;20032;-83
2022/01/15 07:21:53;;;;;;;18.75;6.97;;;5.80;99.90;;;;;;5092451;28;20521;-82
2022/01/15 07:24:19;;;;;;;15.73;6.18;;;5.80;99.90;;;;;;5092847;28;20032;-83
2022/01/15 07:26:45;;;;;;;12.07;6.05;;;5.80;99.90;;;;;;5092845;28;20115;-83
2022/01/15 07:29:14;;;;;;;15.15;5.43;;;5.80;99.90;;;;;;5092373;28;20047;-83
2022/01/15 07:31:40;;;;;;;13.88;5.22;;;5.80;99.90;;;;;;5090220;28;20036;-82
2022/01/15 07:34:06;;;;;;;11.85;4.53;;;5.80;99.90;;;;;;5091376;28;20040;-83
2022/01/15 07:36:32;;;;;;;11.73;4.75;;;5.80;99.90;;;;;;5092096;28;20127;-83
2022/01/15 07:38:58;;;;;;;12.75;4.68;;;5.80;99.90;;;;;;5091531;28;20506;-82
2022/01/15 07:41:23;;;;;;;12.07;5.22;;;5.80;99.90;;;;;;5091394;28;20039;-84
2022/01/15 07:43:49;;;;;;;11.70;5.07;;;5.80;99.90;;;;;;5091470;28;20032;-82
2022/01/15 07:46:15;;;;;;;10.27;4.95;;;5.80;99.90;;;;;;5091267;28;20036;-82
2022/01/15 07:48:40;;;;;;;9.82;4.47;;;5.80;99.90;;;;;;5091644;28;20055;-82
2022/01/15 07:51:07;;;;;;;13.15;6.13;;;5.80;99.90;;;;;;5091467;28;20093;-82
2022/01/15 07:53:32;;;;;;;14.73;7.00;;;5.80;99.90;;;;;;5090982;28;20445;-83
2022/01/15 07:55:58;;;;;;;13.13;6.45;;;5.80;99.90;;;;;;5075347;28;20036;-82
2022/01/15 07:58:24;;;;;;;14.55;6.07;;;5.80;99.90;;;;;;5074714;28;20473;-82
2022/01/15 08:00:49;;;;;;;10.20;5.03;;;5.80;99.90;;;;;;5091567;28;20063;-82
2022/01/15 08:03:15;;;;;;;12.57;4.57;;;5.80;99.90;;;;;;5074341;28;20032;-82
2022/01/15 08:05:40;;;;;;;14.50;5.45;;;5.80;99.90;;;;;;5074346;28;20035;-82
2022/01/15 08:08:06;;;;;;;10.85;4.97;;;5.80;99.90;;;;;;5090653;28;20480;-83
2022/01/15 08:10:32;;;;;;;11.20;4.60;;;5.80;99.90;;;;;;5088480;28;20229;-82
2022/01/15 08:12:59;;;;;;;9.25;4.25;;;5.80;99.90;;;;;;5091274;28;20062;-83
2022/01/15 08:15:25;;;;;;;9.10;4.28;;;5.80;99.90;;;;;;5079873;28;20036;-83
2022/01/15 08:17:51;;;;;;;11.70;4.25;;;5.80;99.90;;;;;;5090725;28;20082;-82
2022/01/15 08:20:17;;;;;;;11.18;3.03;;;5.90;99.90;;;;;;5091192;28;20448;-83
2022/01/15 08:22:45;;;;;;;11.18;3.53;;;5.80;99.90;;;;;;5091058;28;20487;-82
2022/01/15 08:25:13;;;;;;;7.97;3.08;;;5.80;99.90;;;;;;5076519;28;20127;-82
2022/01/15 08:27:39;;;;;;;7.03;3.10;;;5.80;99.90;;;;;;5090584;28;20098;-82
2022/01/15 08:30:06;;;;;;;6.28;3.22;;;5.80;99.90;;;;;;5093598;28;20043;-82
2022/01/15 08:32:32;;;;;;;8.48;3.20;;;5.80;99.90;;;;;;5078193;28;20032;-82
2022/01/15 08:34:57;;;;;;;6.63;3.40;;;5.80;99.90;;;;;;5091010;28;20043;-82
2022/01/15 08:37:23;;;;;;;5.55;3.13;;;5.90;99.90;;;;;;5077688;28;20087;-82
2022/01/15 08:39:49;;;;;;;10.10;4.63;;;5.90;99.90;;;;;;5095080;28;20032;-83
2022/01/15 08:42:15;;;;;;;10.73;5.05;;;5.90;99.90;;;;;;5077867;28;20146;-82
2022/01/15 08:44:43;;;;;;;8.98;4.20;;;5.90;99.90;;;;;;5094553;28;20161;-81
2022/01/15 08:47:09;;;;;;;10.80;4.57;;;5.90;99.90;;;;;;5077516;28;20031;-83
2022/01/15 08:49:35;;;;;;;13.02;4.57;;;5.90;99.90;;;;;;5078735;28;20039;-82
2022/01/15 08:52:01;;;;;;;10.85;5.72;;;5.90;99.90;;;;;;5095409;28;20044;-82
2022/01/15 08:54:26;;;;;;;12.70;5.47;;;5.90;99.90;;;;;;5095750;28;20046;-82
2022/01/15 08:56:52;;;;;;;14.38;6.28;;;5.90;99.90;;;;;;5094791;28;20040;-82
2022/01/15 08:59:18;;;;;;;13.73;7.22;;;5.90;99.90;;;;;;5094144;28;20036;-82
2022/01/15 09:01:45;;;;;;;13.85;6.50;;;6.00;99.90;;;;;;5077062;28;20410;-82
2022/01/15 09:04:10;;;;;;;10.70;5.10;;;5.90;99.90;;;;;;5093683;28;20141;-83
2022/01/15 09:06:39;;;;;;;11.07;5.53;;;5.90;99.90;;;;;;5100240;28;20032;-82
2022/01/15 09:09:05;;;;;;;12.38;6.13;;;5.90;99.90;;;;;;5095289;28;20032;-84
2022/01/15 09:11:30;;;;;;;10.50;5.40;;;5.90;99.90;;;;;;5077300;28;20510;-82
2022/01/15 09:13:56;;;;;;;13.18;6.55;;;5.90;99.90;;;;;;5094223;28;20067;-81
2022/01/15 09:16:22;;;;;;;10.82;5.40;;;5.90;99.90;;;;;;5093998;28;20040;-81
2022/01/15 09:18:47;;;;;;;6.75;3.47;;;5.90;99.90;;;;;;5092980;28;20414;-82
2022/01/15 09:21:13;;;;;;;10.82;5.40;;;6.00;99.90;;;;;;5098105;28;20127;-81
2022/01/15 09:23:39;;;;;;;6.03;2.33;;;5.90;99.90;;;;;;5092076;28;20090;-81
2022/01/15 09:26:06;;;;;;;5.05;2.58;;;5.90;99.90;;;;;;5094517;28;20032;-81
2022/01/15 09:31:16;;;;;;;9.32;4.47;;;6.00;99.90;;;;;;5084474;28;20039;-84
2022/01/15 09:33:41;;;;;;;10.88;5.05;;;6.00;99.90;;;;;;5100579;28;20525;-85
2022/01/15 09:36:07;;;;;;;14.25;6.70;;;5.90;99.90;;;;;;5106360;28;20047;-84
2022/01/15 09:38:33;;;;;;;11.65;5.93;;;6.00;99.90;;;;;;5078020;28;20040;-83
2022/01/15 09:40:59;;;;;;;12.63;6.78;;;6.00;99.90;;;;;;5111612;28;20087;-83
2022/01/15 09:43:24;;;;;;;14.15;6.30;;;6.00;99.90;;;;;;5133599;28;20083;-80
2022/01/15 09:45:51;;;;;;;14.70;7.28;;;6.00;99.90;;;;;;5118719;28;20479;-80
2022/01/15 09:48:19;;;;;;;15.55;6.03;;;6.00;99.90;;;;;;5113889;28;20044;-81
2022/01/15 09:50:46;;;;;;;10.80;4.63;;;6.00;99.90;;;;;;5115716;28;20110;-80
2022/01/15 09:53:16;;;;;;;7.40;4.13;;;6.00;99.90;;;;;;5135594;28;20023;-81
2022/01/15 09:55:42;;;;;;;8.57;3.65;;;6.00;99.90;;;;;;5118410;28;20059;-82
2022/01/15 09:58:08;;;;;;;8.45;4.13;;;6.00;99.90;;;;;;5080968;28;20066;-79
2022/01/15 10:00:34;;;;;;;10.38;4.70;;;6.00;99.90;;;;;;5085890;28;20043;-81
2022/01/15 10:03:00;;;;;;;14.02;6.18;;;6.00;99.90;;;;;;5102036;28;20043;-81
2022/01/15 10:05:25;;;;;;;13.05;4.90;;;6.00;99.90;;;;;;5104290;28;20028;-81
2022/01/15 10:08:00;;;;;;;13.02;5.35;;;6.00;99.90;;;;;;5105437;28;20402;-81
2022/01/15 10:10:29;;;;;;;12.68;6.43;;;6.00;99.90;;;;;;5101854;28;20047;-82
2022/01/15 10:12:55;;;;;;;12.52;5.82;;;6.00;99.90;;;;;;5103715;28;20055;-82
2022/01/15 10:15:21;;;;;;;8.88;5.07;;;6.00;99.90;;;;;;5106574;28;20386;-82
2022/01/15 10:17:47;;;;;;;10.27;5.55;;;6.00;99.90;;;;;;5101669;28;20036;-80
2022/01/15 10:20:18;;;;;;;10.73;5.55;;;6.00;99.90;;;;;;5095986;28;20398;-83
2022/01/15 10:22:47;;;;;;;10.27;5.18;;;6.10;99.90;;;;;;5098717;28;20032;-80
2022/01/15 10:25:19;;;;;;;10.18;4.97;;;6.10;99.90;;;;;;5094635;28;20036;-83
2022/01/15 10:27:47;;;;;;;9.73;4.78;;;6.10;99.90;;;;;;5098558;28;20440;-81
2022/01/15 10:30:19;;;;;;;13.35;7.10;;;6.10;99.90;;;;;;5099050;28;20121;-83
2022/01/15 10:32:58;;;;;;;16.73;10.13;;;6.00;99.90;;;;;;5099379;28;20092;-83
2022/01/15 10:35:27;;;;;;;18.98;12.98;;;6.00;99.90;;;;;;5090876;28;20703;-80
2022/01/15 10:37:58;;;;;;;16.65;12.13;;;5.90;99.90;;;;;;5097395;28;20074;-81
2022/01/15 10:40:38;;;;;;;15.30;10.38;;;5.90;99.90;;;;;;5097314;28;20044;-80
2022/01/15 10:43:04;;;;;;;14.00;10.60;;;5.70;99.90;;;;;;5097127;28;20047;-81
2022/01/15 10:45:34;;;;;;;18.30;12.77;;;5.90;99.90;;;;;;5102694;28;20036;-80
2022/01/15 10:48:02;;;;;;;16.40;12.32;;;6.00;99.90;;;;;;5079576;28;20449;-82
2022/01/15 10:50:33;;;;;;;20.58;12.68;;;6.00;99.90;;;;;;5098487;28;20093;-81
2022/01/15 10:53:10;;;;;;;28.23;15.40;;;6.00;99.90;;;;;;5096612;28;20040;-81
2022/01/15 10:55:36;;;;;;;14.23;10.25;;;6.00;99.90;;;;;;5100629;28;20043;-81
2022/01/15 10:58:09;;;;;;;15.40;11.95;;;6.00;99.90;;;;;;5116256;28;20047;-80
2022/01/15 11:00:40;;;;;;;15.18;10.32;;;5.90;99.90;;;;;;5105504;28;20119;-81
2022/01/15 11:03:11;;;;;;;75.15;42.03;;;5.90;99.90;;;;;;5100062;28;20047;-80
2022/01/15 11:05:42;;;;;;;19.70;12.98;;;5.90;99.90;;;;;;5095671;28;20044;-82
2022/01/15 11:08:25;;;;;;;22.25;13.00;;;5.90;99.90;;;;;;5081699;28;20037;-79
2022/01/15 11:10:57;;;;;;;20.25;13.52;;;5.90;99.90;;;;;;5087170;28;20048;-80
2022/01/15 11:13:28;;;;;;;19.30;13.05;;;5.90;99.90;;;;;;5093622;28;20041;-82
2022/01/15 11:15:56;;;;;;;16.92;11.10;;;6.00;99.90;;;;;;5085166;28;20048;-80
2022/01/15 11:18:25;;;;;;;18.48;11.38;;;6.00;99.90;;;;;;5097144;28;20063;-80
2022/01/15 11:20:54;;;;;;;16.40;10.13;;;6.00;99.90;;;;;;5094151;28;20051;-80
2022/01/15 11:23:22;;;;;;;16.50;8.80;;;6.00;99.90;;;;;;5093132;28;20036;-81
2022/01/15 11:25:49;;;;;;;17.90;10.13;;;6.00;99.90;;;;;;5085136;28;20040;-82
2022/01/15 11:28:17;;;;;;;18.92;10.73;;;5.90;99.90;;;;;;5098727;28;20039;-83
2022/01/15 11:30:45;;;;;;;18.15;11.07;;;5.90;99.90;;;;;;5065969;28;20036;-81
2022/01/15 11:33:12;;;;;;;21.65;13.57;;;5.90;99.90;;;;;;5090898;28;20040;-81
2022/01/15 11:35:45;;;;;;;22.92;13.88;;;5.90;99.90;;;;;;5098329;28;20050;-81
2022/01/15 11:38:31;;;;;;;27.98;15.38;;;5.80;99.90;;;;;;5088241;28;20183;-81
2022/01/15 11:40:56;;;;;;;26.75;15.15;;;5.80;99.90;;;;;;5083791;28;20277;-81
2022/01/15 11:43:25;;;;;;;23.83;13.70;;;5.80;99.90;;;;;;5075177;28;20035;-81
2022/01/15 11:45:52;;;;;;;25.55;14.25;;;5.80;99.90;;;;;;5084929;28;20027;-81
2022/01/15 11:48:30;;;;;;;28.80;16.42;;;5.80;99.90;;;;;;5103433;28;20090;-82
2022/01/15 11:51:14;;;;;;;31.25;16.00;;;5.80;99.90;;;;;;5116803;28;20228;-81
2022/01/15 11:53:46;;;;;;;26.92;14.80;;;5.80;99.90;;;;;;5116058;28;20138;-81
2022/01/15 11:56:16;;;;;;;35.42;18.65;;;5.70;99.90;;;;;;5117832;28;20043;-80
2022/01/15 11:58:41;;;;;;;24.75;14.50;;;5.70;99.90;;;;;;5107051;28;20031;-80
2022/01/15 12:01:07;;;;;;;26.88;13.60;;;5.80;99.90;;;;;;5106924;28;20040;-81
2022/01/15 12:03:39;;;;;;;19.95;11.27;;;5.80;99.90;;;;;;5092805;28;20040;-83
2022/01/15 12:06:04;;;;;;;26.98;13.23;;;5.80;99.90;;;;;;5079727;28;20263;-80
2022/01/15 12:08:32;;;;;;;26.08;14.07;;;5.70;99.90;;;;;;5098365;28;20047;-80
2022/01/15 12:10:59;;;;;;;22.30;13.23;;;5.70;99.90;;;;;;5082111;28;20088;-81
2022/01/15 12:13:29;;;;;;;28.85;16.10;;;5.70;99.90;;;;;;5080122;28;20435;-81
2022/01/15 12:16:14;;;;;;;63.47;37.13;;;5.80;99.90;;;;;;5095035;28;20044;-81
2022/01/15 12:18:47;;;;;;;32.20;18.73;;;5.80;99.90;;;;;;5099767;28;20044;-83
2022/01/15 12:21:43;;;;;;;26.83;15.68;;;5.70;99.90;;;;;;5100299;28;20044;-80
2022/01/15 12:24:35;;;;;;;20.23;11.98;;;5.70;99.90;;;;;;5100244;28;20043;-81
2022/01/15 12:27:06;;;;;;;18.88;12.15;;;5.70;99.90;;;;;;5096750;28;20048;-81
2022/01/15 12:29:31;;;;;;;19.65;12.27;;;5.70;99.90;;;;;;5095929;28;20487;-82
2022/01/15 12:31:58;;;;;;;17.70;11.48;;;5.70;99.90;;;;;;5079231;28;20040;-81
2022/01/15 12:34:24;;;;;;;17.92;9.05;;;5.60;99.90;;;;;;5085053;28;20089;-82
2022/01/15 12:36:50;;;;;;;16.92;10.23;;;5.60;99.90;;;;;;5100765;28;20043;-84
2022/01/15 12:39:31;;;;;;;13.65;10.35;;;5.50;99.90;;;;;;5103137;28;20109;-81
2022/01/15 12:41:56;;;;;;;18.45;11.13;;;5.50;99.90;;;;;;5085573;28;20044;-82
2022/01/15 12:44:22;;;;;;;19.63;11.55;;;5.50;99.90;;;;;;5098305;28;20055;-83
2022/01/15 12:46:54;;;;;;;15.27;9.27;;;5.40;99.90;;;;;;5101456;28;20036;-85
2022/01/15 12:49:20;;;;;;;13.75;8.20;;;5.50;99.90;;;;;;5086531;28;20479;-80
2022/01/15 12:51:45;;;;;;;14.48;9.02;;;5.50;99.90;;;;;;5104103;28;20090;-82
2022/01/15 12:54:11;;;;;;;13.43;6.78;;;5.40;99.90;;;;;;5099790;28;20422;-83
2022/01/15 12:56:39;;;;;;;16.00;9.27;;;5.40;99.90;;;;;;5100459;28;20036;-83
2022/01/15 12:59:05;;;;;;;14.00;8.40;;;5.40;99.90;;;;;;5082702;28;20036;-83
2022/01/15 13:01:31;;;;;;;16.10;9.55;;;5.40;99.90;;;;;;5101430;28;20028;-81
2022/01/15 13:03:57;;;;;;;16.95;10.30;;;5.40;99.90;;;;;;5102464;28;20067;-81
2022/01/15 13:06:26;;;;;;;10.43;6.55;;;5.40;99.90;;;;;;5102617;28;20032;-82